Benvolgut visitant, si us plau, ingressa Recuperar contrasenya
AVAMET paisatges
Union Alcoyana

Redovà

Dades diàries. Acumulats / Últims 30 dies disponibles

Data Temperatura (°C) Humitat rel. (%) Pressió rel. (hPa) Vent (km/h) Precipitació
Mínima Mitjana Màxima Amplitud
tèrmica
Mínima Mitjana Màxima Mínima Mitjana Màxima Predom. Mitjana Ràfega
màxima
Total
(mm)
Índex-n
Mínima Mitjana Màxima Mínima Mitjana Màxima n
0 a 1
P0 max
mm 5'
Dades mensuals acumulades fins l'últim dia disponible
05/2022 11,6 15,0 18,8 22,2 16,6 26,4 30,8 19,2 37 62 92 1.010 1.020 1.025   2,2 38,6 23,6
Dades anuals acumulades fins l'últim dia disponible
2022 1,9 10,0 20,5 15,1 10,5 19,9 30,8 28,9 0 68 95 1.001 1.021 1.035   1,8 54,7 206,3
Últims 30 dies disponibles
20-05-2022 18,8     26,8     30,8 12,0 41 50 75 1.022 1.023 1.024 SSE 5,8 38,6 0,0
19-05-2022 17,1     25,5     29,5 12,4 38 54 80 1.020 1.021 1.022 SSE 3,3 20,9 0,0
18-05-2022 17,6     25,4     29,4 11,8 43 58 85 1.018 1.019 1.020 SSE 3,9 19,3 0,0
17-05-2022 16,9     26,0     30,6 13,7 46 60 85 1.018 1.019 1.021 SE 1,3 19,3 0,0
16-05-2022 16,4     25,6     29,9 13,5 40 62 88 1.018 1.019 1.021 SSE 2,0 19,3 0,0
13-05-2022 16,1     23,4     27,6 11,5 46 62 89 1.020 1.021 1.022 SE 4,1 19,3 0,0
12-05-2022 12,3     21,2     25,7 13,4 48 63 84 1.020 1.021 1.022 SE 4,3 17,7 0,0
11-05-2022 12,8     21,7     27,1 14,3 37 55 84 1.020 1.022 1.023 SSE 2,4 17,7 0,0
10-05-2022 12,9     21,8     26,6 13,7 40 54 82 1.023 1.024 1.025 S 1,8 20,9 0,0
09-05-2022 13,7     21,5     26,6 12,9 37 53 84 1.022 1.023 1.024 NE 3,2 20,9 0,0
06-05-2022 11,6     20,0     25,7 14,1 53 66 90 1.019 1.021 1.022 NNE 0,5 16,1 0,0
05-05-2022 16,6     20,5     23,8 7,2 50 60 67 1.019 1.021 1.023 NNE 0,0 4,8 0,0
04-05-2022 13,5     15,0     16,6 3,1 85 90 92 1.014 1.015 1.017 SE 0,1 6,4 23,1
03-05-2022 12,3     18,8     23,3 11,0 52 71 90 1.011 1.012 1.014 NNE 0,0 3,2 0,5
02-05-2022 16,7     19,4     23,1 6,4 56 73 85 1.010 1.012 1.014 SE 0,7 29,0 0,0
29-04-2022 11,4     19,7     23,1 11,7 50 63 89 1.023 1.024 1.025 NE 0,0 1,6 0,0
28-04-2022 12,3     14,3     15,7 3,4 74 88 93 1.018 1.020 1.021 NE 0,1 4,8 4,6 0,03 4,80
27-04-2022 14,0     15,9     18,6 4,6 57 75 90 1.016 1.018 1.020 WSW 0,1 9,7 16,0 0,67 24,80
26-04-2022 11,3     18,2     22,3 11,0 41 59 85 1.014 1.015 1.016 NNW 0,0 8,0 0,0
25-04-2022 12,0     19,3     23,3 11,3 41 59 85 1.013 1.014 1.015 N 0,0 8,0 0,0
22-04-2022 12,1     17,7     20,7 8,6 51 61 70 1.001 1.004 1.006 N 0,0 1,6 0,0
21-04-2022 12,6     18,9     22,8 10,2 38 47 61 1.005 1.007 1.008 SSW 0,0 1,6 0,0
20-04-2022 11,3     13,5     16,4 5,1 54 76 91 1.002 1.003 1.004 WSW 0,0 1,6 2,5
19-04-2022 13,8     18,9     22,2 8,4 61 76 92 1.006 1.010 1.013 ENE 0,0 3,2 1,3
18-04-2022 13,3     20,1     24,7 11,4 45 66 91 1.013 1.016 1.018 ENE 0,0 3,2 0,0
15-04-2022 15,4     21,2     26,3 10,9 36 48 70 1.019 1.020 1.022 WSW 0,0 4,8 0,0
14-04-2022 15,0     19,3     22,5 7,5 41 52 77 1.014 1.016 1.018 NNW 0,1 9,7 0,5
13-04-2022 12,5     16,3     19,9 7,4 63 79 91 1.010 1.011 1.013 ESE 0,0 3,2 4,1
12-04-2022 14,2     15,8     17,3 3,1 76 84 90 1.010 1.012 1.013 WNW 0,0 3,2 6,4 0,11 7,70
11-04-2022 11,0     17,0     20,1 9,1 65 74 87 1.009 1.012 1.014 E 0,2 17,7 0,0
Últims 13 mesos disponibles
04/2022 6,8 12,0 15,4 17,1 10,5 20,4 28,1 21,3 40 65 90 1.003 1.014 1.024 ENE 0,3 43,5 67,6
03/2022 6,9 11,5 20,5 15,3 13,8 18,5 23,5 16,6 43 74 89 1.003 1.017 1.027 ENE 4,0 54,7 103,0
02/2022 5,7 8,5 12,3 14,0 16,0 20,1 25,8 20,1 43 67 84 1.019 1.025 1.032 ENE 1,4 30,6 1,4
01/2022 1,9 6,4 16,2 11,2 11,7 17,2 24,7 22,8 37 70 88 1.015 1.027 1.033 ENE 1,1 33,8 10,7
12/2021 6,4 10,7 16,9 14,5 14,3 19,1 25,1 18,7 48 68 86 1.010 1.021 1.028 WSW 1,4 30,6 1,4
11/2021 6,8 10,9 20,2 14,9 14,0 19,7 27,4 20,6 46 65 85 1.007 1.016 1.027 WSW 1,7 25,7 46,6
10/2021 15,6 20,7 20,7 19,5 26,2 32,2 32,2 53 74 92 1.012 1.020 1.027 ENE 1,5 27,4 34,9
06/2021 15,3 19,7 23,9 24,6 25,4 29,8 33,6 18,3 45 66 86 1.011 1.018 1.022 ENE 4,0 27,4 24,2
05/2021 12,8 16,0 18,9 21,2 17,5 26,8 36,9 24,1 43 65 82 1.009 1.018 1.025 ENE 3,8 29,0 55,7
04/2021 9,7 13,0 15,2 16,4 14,7 21,1 29,4 19,7 59 75 87 1.007 1.016 1.025 ESE 3,2 33,8 34,9
02/2021 6,6 10,8 18,5 14,9 16,1 19,9 25,5 18,9 45 68 84 1.004 1.020 1.035 SE 3,3 41,8 0,6
01/2021 1,6 7,4 14,1 11,7 8,9 17,3 28,9 27,3 43 63 91 1.005 1.018 1.029 SSO 2,6 35,4 28,7
12/2020 1,7 8,5 16,7 12,9 10,9 18,2 25,6 23,9 42 63 84 1.000 1.017 1.029 SO 2,6 30,6 2,7
Tots els anys disponibles
2020 1,7 14,8 25,9 19,5 10,3 25,2 40,1 38,4 30 67 90 1.000 1.019 1.035 SSE 3,0 56,3 311,0
2019 1,3 14,5 26,5 19,3 13,0 24,8 42,7 41,4 36 64 91 999 1.019 1.034 SSE 2,8 57,9 519,8
Temperatura (°C)
Humitat relativa (%)
Velocitat del vent i ràfega màxima (km/h)
Direcció del vent (°)
Pressió (hPa)
Precipitació (mm)
Nota sobre les dades: s'avisa a l'usuari de la provisionalitat i no oficialitat d'aquestes dades
Logo AVAMET blanc
Web allotjada a Sollutia
Llicència de Creative CommonsLa web d'AVAMET i els seus continguts estan subjectes a una llicència de
Reconeixement - No Comercial - Compartir igual
Avís legal - Política de privacitat - Política de cookies
NOVES ESTACIONS:  Vila-real - les Solaes (Soci), Calles - Parque de Emergencias (Soci), Bocairent - els Corrals (Soci), Sella - el Xarquer, Xàbia - Far del Cap de la Nau (Soci), Benicàssim - Quadre de Santiago (Soci), Sant Mateu - IES Maestrat (Soci)  / el Palomar (Ajuntament/Soci) / Atzeneta del Maestrat - Pla de Meanes (Ajuntament/Soci) / Onda - Sant Gil (Soci) / Onda - Ràtils CR Cota 220 (Soci) / la Vila Joiosa (Ajuntament/Soci) / Miramar - Platja (Ajuntament/Soci) / Massanassa - IES Massanassa (Soci) / Culla - Pla de les Vinyes (Ajuntament/Soci) - - -